createdAt,value
2017-05-03T00:00:14.295Z,0
2017-05-03T00:01:29.230Z,0
2017-05-03T00:02:29.253Z,0
2017-05-03T00:03:14.658Z,0
2017-05-03T00:05:14.695Z,0
2017-05-03T00:06:14.716Z,0
2017-05-03T00:07:14.736Z,0
2017-05-03T00:08:14.205Z,0
2017-05-03T00:09:29.093Z,0
2017-05-03T00:10:14.800Z,0
2017-05-03T00:11:14.826Z,0
2017-05-03T00:12:14.848Z,0
2017-05-03T00:13:14.562Z,0
2017-05-03T00:15:14.296Z,0
2017-05-03T00:16:14.925Z,0
2017-05-03T00:17:14.342Z,0
2017-05-03T00:18:14.667Z,0
2017-05-03T00:19:14.998Z,0
2017-05-03T00:20:29.322Z,0
2017-05-03T00:21:15.031Z,0
2017-05-03T00:22:14.749Z,0
2017-05-03T00:23:14.472Z,0
2017-05-03T00:24:29.414Z,0
2017-05-03T00:25:29.729Z,0
2017-05-03T00:26:15.139Z,0
2017-05-03T00:27:14.551Z,0
2017-05-03T00:28:14.881Z,0
2017-05-03T00:29:14.899Z,0
2017-05-03T00:30:15.217Z,0
2017-05-03T00:31:14.948Z,0
2017-05-03T00:32:29.878Z,0
2017-05-03T00:33:14.988Z,0
2017-05-03T00:34:29.918Z,0
2017-05-03T00:35:29.639Z,0
2017-05-03T00:36:15.347Z,0
2017-05-03T00:37:15.367Z,0
2017-05-03T00:38:29.697Z,0
2017-05-03T00:39:15.108Z,0
2017-05-03T00:40:15.426Z,0
2017-05-03T00:41:30.065Z,0
2017-05-03T00:42:15.165Z,0
2017-05-03T00:43:15.491Z,0
2017-05-03T00:44:15.513Z,0
2017-05-03T00:45:15.228Z,0
2017-05-03T00:46:15.553Z,0
2017-05-03T00:47:15.574Z,0
2017-05-03T00:48:29.908Z,0
2017-05-03T00:49:15.617Z,0
2017-05-03T00:50:15.331Z,0
2017-05-03T00:52:15.681Z,0
2017-05-03T00:53:15.702Z,0
2017-05-03T00:54:15.725Z,0
2017-05-03T00:57:30.396Z,0
2017-05-03T00:58:15.802Z,0
2017-05-03T00:59:15.833Z,0
2017-05-03T01:00:15.553Z,0
2017-05-03T01:01:15.863Z,0
2017-05-03T01:02:15.588Z,0
2017-05-03T01:04:15.627Z,0
2017-05-03T01:05:15.946Z,0
2017-05-03T01:06:15.972Z,0
2017-05-03T01:07:15.987Z,0
2017-05-03T01:08:30.328Z,0
2017-05-03T01:09:15.732Z,0
2017-05-03T01:10:16.059Z,0
2017-05-03T01:11:15.772Z,0
2017-05-03T01:12:30.709Z,0
2017-05-03T01:13:15.817Z,0
2017-05-03T01:14:16.140Z,0
2017-05-03T01:16:16.185Z,0
2017-05-03T01:17:15.902Z,0
2017-05-03T01:18:15.918Z,0
2017-05-03T01:19:15.941Z,0
2017-05-03T01:20:16.259Z,0
2017-05-03T01:21:15.989Z,0
2017-05-03T01:22:16.305Z,0
2017-05-03T01:23:30.942Z,0
2017-05-03T01:24:16.047Z,0
2017-05-03T01:26:15.787Z,0
2017-05-03T01:27:16.105Z,0
2017-05-03T01:28:15.827Z,0
2017-05-03T01:29:15.847Z,0
2017-05-03T01:30:15.862Z,0
2017-05-03T01:31:16.188Z,0
2017-05-03T01:32:16.530Z,0
2017-05-03T01:33:15.928Z,0
2017-05-03T01:34:15.980Z,0
2017-05-03T01:35:16.572Z,0
2017-05-03T01:36:15.987Z,0
2017-05-03T01:38:16.645Z,0
2017-05-03T01:39:16.658Z,0
2017-05-03T01:40:16.675Z,0
2017-05-03T01:42:16.729Z,0
2017-05-03T01:43:16.748Z,0
2017-05-03T01:44:31.380Z,0
2017-05-03T01:45:16.482Z,0
2017-05-03T01:46:16.504Z,0
2017-05-03T01:47:16.218Z,0
2017-05-03T01:48:31.161Z,0
2017-05-03T01:49:16.260Z,0
2017-05-03T01:50:16.889Z,0
2017-05-03T01:51:16.603Z,0
2017-05-03T01:52:31.549Z,0
2017-05-03T01:53:16.961Z,0
2017-05-03T01:54:16.363Z,0
2017-05-03T01:55:31.609Z,0
2017-05-03T01:56:31.628Z,0
2017-05-03T01:57:16.730Z,0
2017-05-03T01:58:16.476Z,0
2017-05-03T01:59:17.077Z,0
2017-05-03T02:00:31.713Z,0
2017-05-03T02:01:17.123Z,0
2017-05-03T02:02:17.136Z,0
2017-05-03T02:03:17.158Z,0
2017-05-03T02:04:16.877Z,0
2017-05-03T02:05:17.202Z,0
2017-05-03T02:06:17.221Z,0
2017-05-03T02:07:16.938Z,0
2017-05-03T02:08:17.270Z,0
2017-05-03T02:09:17.285Z,0
2017-05-03T02:10:31.919Z,0
2017-05-03T02:11:17.022Z,0
2017-05-03T02:12:17.346Z,0
2017-05-03T02:13:17.065Z,0
2017-05-03T02:14:17.392Z,0
2017-05-03T02:15:17.406Z,0
2017-05-03T02:16:32.046Z,0
2017-05-03T02:18:17.177Z,0
2017-05-03T02:19:17.492Z,0
2017-05-03T02:20:17.209Z,0
2017-05-03T02:21:17.535Z,0
2017-05-03T02:22:17.555Z,0
2017-05-03T02:23:17.578Z,0
2017-05-03T02:24:17.594Z,0
2017-05-03T02:25:17.619Z,0
2017-05-03T02:26:17.636Z,0
2017-05-03T02:27:17.397Z,0
2017-05-03T02:28:17.681Z,0
2017-05-03T02:29:17.708Z,0
2017-05-03T02:30:17.724Z,0
2017-05-03T02:31:17.440Z,0
2017-05-03T02:32:32.379Z,0
2017-05-03T02:33:17.786Z,0
2017-05-03T02:34:17.806Z,0
2017-05-03T02:35:17.830Z,0
2017-05-03T02:36:17.545Z,0
2017-05-03T02:37:17.563Z,0
2017-05-03T02:38:17.887Z,0
2017-05-03T02:39:17.603Z,0
2017-05-03T02:40:17.930Z,0
2017-05-03T02:41:17.953Z,0
2017-05-03T02:42:17.975Z,0
2017-05-03T02:43:17.995Z,0
2017-05-03T02:44:17.713Z,0
2017-05-03T02:45:17.737Z,0
2017-05-03T02:46:17.753Z,0
2017-05-03T02:47:32.390Z,0
2017-05-03T02:48:18.097Z,0
2017-05-03T02:49:17.515Z,0
2017-05-03T02:50:18.137Z,0
2017-05-03T02:51:18.160Z,0
2017-05-03T02:52:17.572Z,0
2017-05-03T02:53:18.202Z,0
2017-05-03T02:54:18.238Z,0
2017-05-03T02:55:17.940Z,0
2017-05-03T02:56:32.575Z,0
2017-05-03T02:57:18.284Z,0
2017-05-03T02:58:18.307Z,0
2017-05-03T02:59:32.944Z,0
2017-05-03T03:00:18.346Z,0
2017-05-03T03:02:18.087Z,0
2017-05-03T03:03:18.413Z,0
2017-05-03T03:04:18.439Z,4
2017-05-03T03:06:18.468Z,4
2017-05-03T03:07:18.190Z,4
2017-05-03T03:08:18.510Z,0
2017-05-03T03:09:18.231Z,4
2017-05-03T03:10:18.251Z,8
2017-05-03T03:11:18.282Z,4
2017-05-03T03:12:18.601Z,8
2017-05-03T03:13:18.615Z,4
2017-05-03T03:14:33.255Z,8
2017-05-03T03:15:18.355Z,12
2017-05-03T03:16:32.991Z,12
2017-05-03T03:17:18.702Z,8
2017-05-03T03:18:18.722Z,16
2017-05-03T03:19:33.056Z,12
2017-05-03T03:20:18.462Z,20
2017-05-03T03:21:18.477Z,20
2017-05-03T03:22:18.500Z,20
2017-05-03T03:23:18.518Z,24
2017-05-03T03:24:18.551Z,28
2017-05-03T03:25:18.257Z,28
2017-05-03T03:26:18.894Z,32
2017-05-03T03:27:18.608Z,36
2017-05-03T03:28:18.930Z,36
2017-05-03T03:29:18.643Z,40
2017-05-03T03:32:19.009Z,56
2017-05-03T03:34:18.749Z,72
2017-05-03T03:35:33.687Z,72
2017-05-03T03:36:19.090Z,72
2017-05-03T03:37:19.124Z,72
2017-05-03T03:38:19.149Z,72
2017-05-03T03:39:19.160Z,80
2017-05-03T03:40:18.868Z,84
2017-05-03T03:41:18.890Z,96
2017-05-03T03:42:33.835Z,116
2017-05-03T03:43:19.240Z,116
2017-05-03T03:44:19.270Z,128
2017-05-03T03:45:19.279Z,128
2017-05-03T03:46:19.004Z,132
2017-05-03T03:47:19.115Z,140
2017-05-03T03:48:18.731Z,144
2017-05-03T03:50:19.078Z,184
2017-05-03T03:51:34.017Z,204
2017-05-03T03:52:19.438Z,204
2017-05-03T03:53:19.450Z,208
2017-05-03T03:54:19.474Z,220
2017-05-03T03:55:19.179Z,228
2017-05-03T03:56:19.505Z,216
2017-05-03T03:57:19.224Z,232
2017-05-03T03:58:34.165Z,232
2017-05-03T03:59:19.264Z,224
2017-05-03T04:00:34.203Z,240
2017-05-03T04:01:19.305Z,252
2017-05-03T04:02:34.249Z,244
2017-05-03T04:03:34.267Z,256
2017-05-03T04:04:19.674Z,268
2017-05-03T04:05:19.696Z,292
2017-05-03T04:06:19.710Z,296
2017-05-03T04:07:34.347Z,300
2017-05-03T04:08:19.448Z,308
2017-05-03T04:09:19.776Z,308
2017-05-03T04:10:19.848Z,316
2017-05-03T04:11:19.815Z,324
2017-05-03T04:12:19.535Z,352
2017-05-03T04:14:19.890Z,364
2017-05-03T04:15:34.208Z,392
2017-05-03T04:16:19.612Z,396
2017-05-03T04:17:34.552Z,448
2017-05-03T04:18:19.674Z,452
2017-05-03T04:19:19.993Z,440
2017-05-03T04:20:19.696Z,464
2017-05-03T04:21:19.769Z,444
2017-05-03T04:22:34.708Z,420
2017-05-03T04:23:19.762Z,432
2017-05-03T04:24:19.789Z,448
2017-05-03T04:25:20.103Z,476
2017-05-03T04:26:19.821Z,516
2017-05-03T04:27:20.152Z,508
2017-05-03T04:28:20.166Z,516
2017-05-03T04:29:20.186Z,492
2017-05-03T04:30:19.916Z,496
2017-05-03T04:31:19.937Z,532
2017-05-03T04:32:20.249Z,532
2017-05-03T04:33:20.275Z,528
2017-05-03T04:34:20.009Z,504
2017-05-03T04:35:20.307Z,484
2017-05-03T04:36:20.332Z,504
2017-05-03T04:37:20.349Z,512
2017-05-03T04:38:19.822Z,484
2017-05-03T04:39:19.783Z,480
2017-05-03T04:40:20.112Z,472
2017-05-03T04:41:19.826Z,508
2017-05-03T04:42:20.455Z,508
2017-05-03T04:43:19.870Z,512
2017-05-03T04:44:35.117Z,540
2017-05-03T04:45:20.512Z,556
2017-05-03T04:46:20.230Z,536
2017-05-03T04:47:20.250Z,520
2017-05-03T04:48:35.194Z,424
2017-05-03T04:49:20.294Z,392
2017-05-03T04:50:20.617Z,416
2017-05-03T04:51:20.686Z,520
2017-05-03T04:52:20.658Z,656
2017-05-03T04:53:20.680Z,692
2017-05-03T04:54:35.323Z,676
2017-05-03T04:56:20.741Z,644
2017-05-03T04:57:20.456Z,644
2017-05-03T04:58:20.786Z,688
2017-05-03T04:59:20.801Z,780
2017-05-03T05:00:35.137Z,740
2017-05-03T05:01:20.842Z,768
2017-05-03T05:02:35.177Z,816
2017-05-03T05:03:20.921Z,852
2017-05-03T05:05:20.932Z,984
2017-05-03T05:06:20.650Z,1016
2017-05-03T05:08:35.615Z,1028
2017-05-03T05:09:21.005Z,1000
2017-05-03T05:10:35.644Z,1008
2017-05-03T05:11:20.441Z,936
2017-05-03T05:12:21.073Z,972
2017-05-03T05:13:20.789Z,848
2017-05-03T05:14:21.109Z,788
2017-05-03T05:15:21.131Z,888
2017-05-03T05:16:21.153Z,840
2017-05-03T05:17:21.171Z,776
2017-05-03T05:18:21.194Z,800
2017-05-03T05:19:21.218Z,892
2017-05-03T05:20:20.940Z,1052
2017-05-03T05:21:35.570Z,1156
2017-05-03T05:22:20.971Z,1220
2017-05-03T05:23:20.693Z,1400
2017-05-03T05:24:21.016Z,1564
2017-05-03T05:25:21.340Z,1612
2017-05-03T05:26:35.971Z,1576
2017-05-03T05:27:21.080Z,1532
2017-05-03T05:28:21.098Z,1672
2017-05-03T05:29:21.120Z,1652
2017-05-03T05:31:21.159Z,1720
2017-05-03T05:32:36.099Z,1852
2017-05-03T05:33:21.200Z,1820
2017-05-03T05:34:21.771Z,1976
2017-05-03T05:35:36.158Z,2056
2017-05-03T05:36:36.182Z,2124
2017-05-03T05:37:21.590Z,1996
2017-05-03T05:38:21.604Z,2244
2017-05-03T05:39:21.629Z,2372
2017-05-03T05:42:36.303Z,3792
2017-05-03T05:43:21.101Z,3384
2017-05-03T05:44:21.741Z,2852
2017-05-03T05:45:21.139Z,2844
2017-05-03T05:46:21.778Z,2848
2017-05-03T05:47:21.787Z,2288
2017-05-03T05:48:21.823Z,2024
2017-05-03T05:49:21.832Z,2256
2017-05-03T05:50:21.853Z,2556
2017-05-03T05:51:21.874Z,2484
2017-05-03T05:52:21.289Z,2176
2017-05-03T05:53:21.916Z,2108
2017-05-03T05:54:21.937Z,2308
2017-05-03T05:56:21.376Z,2504
2017-05-03T05:57:36.617Z,2760
2017-05-03T05:58:21.720Z,3048
2017-05-03T05:59:36.711Z,3016
2017-05-03T06:00:22.061Z,2780
2017-05-03T06:01:21.781Z,2484
2017-05-03T06:02:21.811Z,2476
2017-05-03T06:03:36.743Z,2416
2017-05-03T06:04:22.151Z,2316
2017-05-03T06:05:22.203Z,2332
2017-05-03T06:06:22.185Z,2420
2017-05-03T06:07:22.224Z,2396
2017-05-03T06:08:22.236Z,2304
2017-05-03T06:09:21.957Z,2108
2017-05-03T06:10:22.280Z,2108
2017-05-03T06:11:22.300Z,2144
2017-05-03T06:12:22.010Z,2380
2017-05-03T06:13:22.035Z,2544
2017-05-03T06:14:22.056Z,2844
2017-05-03T06:15:22.071Z,2984
2017-05-03T06:16:36.410Z,2496
2017-05-03T06:17:22.417Z,2476
2017-05-03T06:18:22.140Z,2400
2017-05-03T06:19:22.463Z,2576
2017-05-03T06:20:37.103Z,2972
2017-05-03T06:21:22.502Z,3136
2017-05-03T06:22:22.222Z,3100
2017-05-03T06:24:22.620Z,3120
2017-05-03T06:25:22.283Z,3092
2017-05-03T06:26:22.331Z,3288
2017-05-03T06:27:22.627Z,3436
2017-05-03T06:28:22.652Z,3064
2017-05-03T06:29:37.290Z,3084
2017-05-03T06:30:22.387Z,3060
2017-05-03T06:31:22.712Z,2884
2017-05-03T06:32:22.429Z,2932
2017-05-03T06:33:22.764Z,3220
2017-05-03T06:34:22.775Z,3388
2017-05-03T06:35:22.804Z,3208
2017-05-03T06:36:22.819Z,3528
2017-05-03T06:37:22.837Z,4052
2017-05-03T06:38:37.476Z,3456
2017-05-03T06:39:37.198Z,3900
2017-05-03T06:41:22.638Z,4040
2017-05-03T06:42:22.947Z,3884
2017-05-03T06:43:22.968Z,3576
2017-05-03T06:44:22.690Z,3360
2017-05-03T06:45:37.320Z,3972
2017-05-03T06:46:23.029Z,4084
2017-05-03T06:47:23.052Z,4096
2017-05-03T06:48:22.769Z,3856
2017-05-03T06:49:23.095Z,4148
2017-05-03T06:50:22.810Z,3768
2017-05-03T06:51:23.138Z,3776
2017-05-03T06:52:23.158Z,4148
2017-05-03T06:53:23.181Z,3732
2017-05-03T06:54:37.816Z,3200
2017-05-03T06:55:23.224Z,3156
2017-05-03T06:56:23.243Z,3252
2017-05-03T06:58:37.900Z,3636
2017-05-03T06:59:23.003Z,4000
2017-05-03T07:00:23.331Z,4292
2017-05-03T07:01:37.967Z,4252
2017-05-03T07:02:23.071Z,4180
2017-05-03T07:03:23.402Z,4132
2017-05-03T07:04:23.425Z,4724
2017-05-03T07:05:23.437Z,5264
2017-05-03T07:06:23.455Z,4292
2017-05-03T07:07:23.206Z,4500
2017-05-03T07:08:23.502Z,4308
2017-05-03T07:09:38.142Z,3888
2017-05-03T07:10:23.541Z,3640
2017-05-03T07:11:23.574Z,3896
2017-05-03T07:12:23.593Z,4804
2017-05-03T07:13:23.623Z,4864
2017-05-03T07:16:23.676Z,4324
2017-05-03T07:17:38.310Z,4680
2017-05-03T07:18:23.725Z,4624
2017-05-03T07:19:23.740Z,4468
2017-05-03T07:20:23.764Z,4216
2017-05-03T07:21:23.788Z,4412
2017-05-03T07:22:23.807Z,5036
2017-05-03T07:23:23.826Z,5252
2017-05-03T07:24:23.844Z,6676
2017-05-03T07:25:23.872Z,7700
2017-05-03T07:26:38.506Z,9196
2017-05-03T07:28:23.937Z,8092
2017-05-03T07:29:23.656Z,8324
2017-05-03T07:31:23.696Z,5932
2017-05-03T07:32:38.639Z,5996
2017-05-03T07:33:24.052Z,5556
2017-05-03T07:34:24.068Z,5144
2017-05-03T07:35:24.090Z,5140
2017-05-03T07:36:24.160Z,5164
2017-05-03T07:37:23.833Z,5596
2017-05-03T07:38:24.159Z,6660
2017-05-03T07:40:24.202Z,7072
2017-05-03T07:41:24.222Z,6560
2017-05-03T07:42:38.860Z,6132
2017-05-03T07:43:24.304Z,6240
2017-05-03T07:44:24.295Z,6404
2017-05-03T07:45:24.311Z,7184
2017-05-03T07:47:24.050Z,7444
2017-05-03T07:48:24.378Z,7092
2017-05-03T07:49:24.406Z,6980
2017-05-03T07:50:24.118Z,7112
2017-05-03T07:51:24.442Z,7060
2017-05-03T07:52:24.466Z,7360
2017-05-03T07:53:24.491Z,7328
2017-05-03T07:54:38.827Z,7436
2017-05-03T07:55:24.537Z,7776
2017-05-03T07:56:24.556Z,8592
2017-05-03T07:57:24.656Z,9060
2017-05-03T07:58:39.216Z,8192
2017-05-03T07:59:24.625Z,7792
2017-05-03T08:02:24.695Z,7884
2017-05-03T08:03:24.812Z,7408
2017-05-03T08:04:39.355Z,7416
2017-05-03T08:05:24.756Z,7536
2017-05-03T08:06:24.785Z,7448
2017-05-03T08:07:24.801Z,7676
2017-05-03T08:08:24.835Z,7224
2017-05-03T08:09:24.854Z,7012
2017-05-03T08:10:24.920Z,7240
2017-05-03T08:11:24.634Z,7604
2017-05-03T08:12:24.915Z,7524
2017-05-03T08:13:24.939Z,7228
2017-05-03T08:14:24.963Z,7304
2017-05-03T08:15:24.984Z,7288
2017-05-03T08:16:25.014Z,7044
2017-05-03T08:17:39.696Z,6924
2017-05-03T08:18:25.054Z,6932
2017-05-03T08:19:25.082Z,6864
2017-05-03T08:20:39.411Z,6248
2017-05-03T08:21:24.514Z,5876
2017-05-03T08:22:25.144Z,5700
2017-05-03T08:23:25.173Z,5788
2017-05-03T08:24:25.189Z,5964
2017-05-03T08:25:25.211Z,5972
2017-05-03T08:26:25.233Z,6192
2017-05-03T08:27:39.876Z,6740
2017-05-03T08:28:25.290Z,7464
2017-05-03T08:30:25.366Z,7368
2017-05-03T08:34:25.118Z,8012
2017-05-03T08:35:25.138Z,9132
2017-05-03T08:36:39.777Z,10900
2017-05-03T08:38:25.509Z,15336
2017-05-03T08:39:25.228Z,18784
2017-05-03T08:40:25.253Z,19904
2017-05-03T08:41:24.975Z,19744
2017-05-03T08:42:25.603Z,21440
2017-05-03T08:43:25.334Z,19744
2017-05-03T08:44:25.650Z,13724
2017-05-03T08:45:39.987Z,14308
2017-05-03T08:46:25.392Z,15428
2017-05-03T08:49:25.164Z,11712
2017-05-03T08:50:25.220Z,12040
2017-05-03T08:51:25.511Z,12424
2017-05-03T08:52:40.457Z,12432
2017-05-03T08:53:25.260Z,12892
2017-05-03T08:54:25.888Z,12460
2017-05-03T08:55:25.948Z,12224
2017-05-03T08:56:39.952Z,12300
2017-05-03T08:57:25.998Z,12588
2017-05-03T08:58:25.988Z,13060
2017-05-03T08:59:26.008Z,13300
2017-05-03T09:00:25.731Z,13796
2017-05-03T09:01:26.060Z,15720
2017-05-03T09:02:40.699Z,11828
2017-05-03T09:03:26.109Z,11068
2017-05-03T09:04:26.131Z,11928
2017-05-03T09:05:26.165Z,16168
2017-05-03T09:06:26.186Z,13992
2017-05-03T09:07:40.520Z,16084
2017-05-03T09:08:26.230Z,20256
2017-05-03T09:09:26.254Z,16228
2017-05-03T09:10:26.285Z,15344
2017-05-03T09:11:26.311Z,17344
2017-05-03T09:12:26.333Z,19264
2017-05-03T09:13:26.048Z,18112
2017-05-03T09:14:26.379Z,20544
2017-05-03T09:15:26.403Z,21184
2017-05-03T09:16:26.425Z,24640
2017-05-03T09:17:26.455Z,27904
2017-05-03T09:18:26.479Z,20384
2017-05-03T09:19:26.551Z,14564
2017-05-03T09:20:26.533Z,13004
2017-05-03T09:21:26.555Z,12292
2017-05-03T09:22:26.328Z,12552
2017-05-03T09:23:26.607Z,12232
2017-05-03T09:24:26.668Z,12092
2017-05-03T09:25:26.656Z,12272
2017-05-03T09:26:26.732Z,12544
2017-05-03T09:27:26.707Z,12556
2017-05-03T09:28:26.731Z,12880
2017-05-03T09:29:26.758Z,13876
2017-05-03T09:30:26.834Z,14684
2017-05-03T09:31:26.808Z,15124
2017-05-03T09:32:26.847Z,14496
2017-05-03T09:33:26.923Z,13924
2017-05-03T09:34:26.946Z,13532
2017-05-03T09:35:41.530Z,13464
2017-05-03T09:36:26.644Z,13796
2017-05-03T09:37:26.664Z,12852
2017-05-03T09:38:27.002Z,12620
2017-05-03T09:39:41.630Z,12280
2017-05-03T09:40:27.040Z,13144
2017-05-03T09:41:27.071Z,14368
2017-05-03T09:42:27.095Z,16256
2017-05-03T09:43:27.118Z,16844
2017-05-03T09:44:27.151Z,21664
2017-05-03T09:45:41.786Z,20384
2017-05-03T09:46:41.812Z,12072
2017-05-03T09:47:27.235Z,11056
2017-05-03T09:48:26.941Z,11040
2017-05-03T09:49:27.338Z,11836
2017-05-03T09:50:27.296Z,12320
2017-05-03T09:51:41.940Z,13160
2017-05-03T09:52:27.405Z,13720
2017-05-03T09:53:27.071Z,13604
2017-05-03T09:54:27.399Z,18784
2017-05-03T09:55:42.041Z,18528
2017-05-03T09:56:27.151Z,18144
2017-05-03T09:57:27.175Z,18304
2017-05-03T09:58:27.204Z,17728
2017-05-03T09:59:27.222Z,14084
2017-05-03T10:00:27.605Z,14960
2017-05-03T10:01:27.579Z,15360
2017-05-03T10:02:27.655Z,10984
2017-05-03T10:03:27.628Z,13012
2017-05-03T10:04:27.660Z,13652
2017-05-03T10:05:42.300Z,14484
2017-05-03T10:06:27.709Z,13460
2017-05-03T10:07:27.788Z,17024
2017-05-03T10:08:27.767Z,14188
2017-05-03T10:09:27.183Z,14056
2017-05-03T10:10:27.814Z,18880
2017-05-03T10:11:42.195Z,19040
2017-05-03T10:12:27.871Z,19360
2017-05-03T10:13:27.597Z,20224
2017-05-03T10:14:27.921Z,19008
2017-05-03T10:15:27.640Z,18048
2017-05-03T10:16:27.367Z,16192
2017-05-03T10:17:27.999Z,18112
2017-05-03T10:18:28.026Z,18528
2017-05-03T10:19:28.055Z,12504
2017-05-03T10:20:42.393Z,11540
2017-05-03T10:21:28.106Z,11172
2017-05-03T10:22:27.879Z,10660
2017-05-03T10:23:42.787Z,9776
2017-05-03T10:24:27.889Z,10072
2017-05-03T10:25:28.213Z,10612
2017-05-03T10:26:28.002Z,11928
2017-05-03T10:27:42.581Z,12412
2017-05-03T10:28:28.356Z,11728
2017-05-03T10:29:28.338Z,12444
2017-05-03T10:30:28.341Z,13532
2017-05-03T10:31:28.376Z,17664
2017-05-03T10:32:28.397Z,16832
2017-05-03T10:33:28.439Z,12792
2017-05-03T10:34:28.467Z,16632
2017-05-03T10:35:28.477Z,18272
2017-05-03T10:36:28.504Z,13848
2017-05-03T10:37:28.252Z,13812
2017-05-03T10:38:28.585Z,16736
2017-05-03T10:39:28.595Z,12028
2017-05-03T10:40:28.329Z,11244
2017-05-03T10:41:28.645Z,11820
2017-05-03T10:42:43.288Z,12188
2017-05-03T10:43:28.854Z,13176
2017-05-03T10:44:28.725Z,13816
2017-05-03T10:45:28.747Z,19104
2017-05-03T10:46:28.580Z,17088
2017-05-03T10:47:28.518Z,12840
2017-05-03T10:48:28.538Z,13096
2017-05-03T10:49:28.974Z,12432
2017-05-03T10:50:43.500Z,12592
2017-05-03T10:51:28.924Z,12396
2017-05-03T10:52:28.950Z,14220
2017-05-03T10:53:28.968Z,13052
2017-05-03T10:54:29.001Z,16352
2017-05-03T10:55:29.025Z,12428
2017-05-03T10:56:29.047Z,11500
2017-05-03T10:57:29.078Z,10740
2017-05-03T10:58:29.092Z,9984
2017-05-03T10:59:43.889Z,8980
2017-05-03T11:00:29.361Z,8960
2017-05-03T11:01:29.207Z,9176
2017-05-03T11:02:29.203Z,9488
2017-05-03T11:03:29.253Z,10032
2017-05-03T11:04:29.231Z,10384
2017-05-03T11:05:28.971Z,10892
2017-05-03T11:06:29.302Z,11032
2017-05-03T11:07:43.948Z,11212
2017-05-03T11:08:29.046Z,11616
2017-05-03T11:09:29.485Z,12620
2017-05-03T11:11:29.428Z,10376
2017-05-03T11:12:29.303Z,10432
2017-05-03T11:13:29.217Z,10712
2017-05-03T11:14:43.806Z,11196
2017-05-03T11:15:29.863Z,11140
2017-05-03T11:16:29.587Z,11028
2017-05-03T11:17:29.256Z,11208
2017-05-03T11:18:29.789Z,11264
2017-05-03T11:19:29.660Z,11148
2017-05-03T11:20:43.955Z,11248
2017-05-03T11:21:29.661Z,11188
2017-05-03T11:23:29.734Z,11204
2017-05-03T11:24:44.461Z,10816
2017-05-03T11:25:44.432Z,10236
2017-05-03T11:26:44.156Z,9936
2017-05-03T11:27:44.382Z,10380
2017-05-03T11:28:29.841Z,12148
2017-05-03T11:29:29.618Z,11228
2017-05-03T11:30:44.261Z,11024
2017-05-03T11:31:29.413Z,11460
2017-05-03T11:32:29.638Z,10640
2017-05-03T11:33:30.227Z,10124
2017-05-03T11:34:30.048Z,9404
2017-05-03T11:35:29.714Z,8848
2017-05-03T11:36:29.894Z,9484
2017-05-03T11:37:30.070Z,12348
2017-05-03T11:38:30.101Z,12856
2017-05-03T11:39:30.124Z,11892
2017-05-03T11:40:30.147Z,11508
2017-05-03T11:41:30.177Z,11436
2017-05-03T11:42:30.257Z,12648
2017-05-03T11:43:44.841Z,11296
2017-05-03T11:44:30.254Z,10660
2017-05-03T11:45:30.447Z,9728
2017-05-03T11:46:44.970Z,9604
2017-05-03T11:47:30.026Z,9824
2017-05-03T11:48:30.352Z,10148
2017-05-03T11:49:30.585Z,10340
2017-05-03T11:50:30.425Z,10480
2017-05-03T11:51:30.436Z,10736
2017-05-03T11:52:30.516Z,10472
2017-05-03T11:53:30.481Z,11012
2017-05-03T11:54:30.508Z,12220
2017-05-03T11:55:30.533Z,13080
2017-05-03T11:56:45.177Z,12536
2017-05-03T11:57:30.582Z,10792
2017-05-03T11:58:30.519Z,10604
2017-05-03T11:59:30.334Z,11124
2017-05-03T12:00:30.054Z,11208
2017-05-03T12:01:30.231Z,11908
2017-05-03T12:02:45.331Z,10900
2017-05-03T12:03:30.131Z,10972
2017-05-03T12:04:30.865Z,10700
2017-05-03T12:05:30.897Z,10756
2017-05-03T12:06:30.917Z,10800
2017-05-03T12:07:30.844Z,10300
2017-05-03T12:08:30.663Z,9864
2017-05-03T12:09:30.890Z,9556
2017-05-03T12:10:30.916Z,9352
2017-05-03T12:11:30.953Z,9388
2017-05-03T12:12:30.968Z,9392
2017-05-03T12:13:30.996Z,9400
2017-05-03T12:14:31.021Z,9816
2017-05-03T12:15:45.663Z,11036
2017-05-03T12:16:31.074Z,11292
2017-05-03T12:17:45.867Z,9308
2017-05-03T12:18:30.869Z,9252
2017-05-03T12:19:31.147Z,9284
2017-05-03T12:20:31.272Z,9760
2017-05-03T12:21:30.899Z,9092
2017-05-03T12:22:31.227Z,10764
2017-05-03T12:23:46.018Z,9000
2017-05-03T12:24:31.326Z,9048
2017-05-03T12:25:31.299Z,9168
2017-05-03T12:26:31.681Z,9708
2017-05-03T12:27:45.970Z,9840
2017-05-03T12:28:31.426Z,9896
2017-05-03T12:29:31.459Z,11224
2017-05-03T12:30:31.426Z,9640
2017-05-03T12:31:31.461Z,9440
2017-05-03T12:32:31.578Z,9288
2017-05-03T12:33:31.556Z,10968
2017-05-03T12:34:31.527Z,9516
2017-05-03T12:35:31.804Z,9712
2017-05-03T12:36:31.579Z,9920
2017-05-03T12:37:30.999Z,10332
2017-05-03T12:38:31.778Z,11624
2017-05-03T12:39:31.700Z,11028
2017-05-03T12:40:31.792Z,9204
2017-05-03T12:41:46.070Z,8904
2017-05-03T12:42:46.349Z,9152
2017-05-03T12:43:31.755Z,9144
2017-05-03T12:44:31.836Z,9272
2017-05-03T12:45:31.857Z,9756
2017-05-03T12:46:31.831Z,9596
2017-05-03T12:47:32.010Z,9564
2017-05-03T12:48:31.886Z,8716
2017-05-03T12:49:46.226Z,8484
2017-05-03T12:51:32.061Z,8760
2017-05-03T12:52:31.985Z,8692
2017-05-03T12:53:31.410Z,8464
2017-05-03T12:54:32.086Z,8220
2017-05-03T12:55:32.062Z,8424
2017-05-03T12:56:32.134Z,10452
2017-05-03T12:57:31.806Z,8752
2017-05-03T12:58:32.189Z,9140
2017-05-03T12:59:32.572Z,11224
2017-05-03T13:00:32.210Z,9660
2017-05-03T13:01:32.223Z,9772
2017-05-03T13:02:32.312Z,9112
2017-05-03T13:03:32.296Z,10744
2017-05-03T13:04:32.294Z,10452
2017-05-03T13:05:46.934Z,8260
2017-05-03T13:06:32.359Z,9136
2017-05-03T13:07:32.433Z,8156
2017-05-03T13:08:32.601Z,8472
2017-05-03T13:09:47.043Z,9484
2017-05-03T13:10:32.210Z,9504
2017-05-03T13:11:32.618Z,10424
2017-05-03T13:12:32.498Z,9504
2017-05-03T13:13:32.526Z,9956
2017-05-03T13:14:32.652Z,8596
2017-05-03T13:15:32.264Z,9820
2017-05-03T13:16:46.907Z,8216
2017-05-03T13:17:32.668Z,7892
2017-05-03T13:18:47.262Z,7988
2017-05-03T13:19:32.667Z,9872
2017-05-03T13:20:32.840Z,10136
2017-05-03T13:21:47.337Z,10392
2017-05-03T13:22:47.464Z,10556
2017-05-03T13:23:32.821Z,10584
2017-05-03T13:24:32.798Z,9680
2017-05-03T13:25:32.815Z,9436
2017-05-03T13:27:32.871Z,7960
2017-05-03T13:28:32.895Z,7888
2017-05-03T13:29:32.966Z,5892
2017-05-03T13:30:47.259Z,4796
2017-05-03T13:31:32.669Z,4328
2017-05-03T13:32:32.891Z,4092
2017-05-03T13:33:33.019Z,4304
2017-05-03T13:34:33.058Z,4572
2017-05-03T13:35:33.421Z,4576
2017-05-03T13:36:33.109Z,4356
2017-05-03T13:37:47.742Z,4268
2017-05-03T13:38:33.298Z,4276
2017-05-03T13:39:33.171Z,4220
2017-05-03T13:40:33.298Z,4132
2017-05-03T13:41:33.335Z,4104
2017-05-03T13:43:33.281Z,4196
2017-05-03T13:44:33.410Z,4340
2017-05-03T13:45:33.326Z,4520
2017-05-03T13:46:33.494Z,4644
2017-05-03T13:47:33.370Z,4624
2017-05-03T13:48:33.411Z,4532
2017-05-03T13:50:33.523Z,4356
2017-05-03T13:51:33.489Z,4364
2017-05-03T13:52:48.118Z,4512
2017-05-03T13:53:33.540Z,4564
2017-05-03T13:54:33.261Z,4596
2017-05-03T13:55:33.791Z,4640
2017-05-03T13:56:48.234Z,4664
2017-05-03T13:57:33.633Z,4720
2017-05-03T13:58:33.818Z,4780
2017-05-03T13:59:34.046Z,4840
2017-05-03T14:00:33.711Z,5004
2017-05-03T14:01:33.994Z,5192
2017-05-03T14:02:33.815Z,5400
2017-05-03T14:03:33.184Z,5652
2017-05-03T14:04:33.799Z,5904
2017-05-03T14:05:33.824Z,6108
2017-05-03T14:06:33.864Z,6236
2017-05-03T14:07:33.992Z,6380
2017-05-03T14:08:48.517Z,6624
2017-05-03T14:09:33.622Z,6720
2017-05-03T14:10:33.803Z,6768
2017-05-03T14:11:33.738Z,6720
2017-05-03T14:12:34.027Z,6588
2017-05-03T14:13:34.238Z,6532
2017-05-03T14:14:34.070Z,6480
2017-05-03T14:15:34.099Z,6472
2017-05-03T14:16:34.510Z,6480
2017-05-03T14:17:34.123Z,6444
2017-05-03T14:18:34.157Z,6376
2017-05-03T14:19:34.216Z,6212
2017-05-03T14:20:34.189Z,6040
2017-05-03T14:22:34.286Z,5996
2017-05-03T14:23:34.358Z,6088
2017-05-03T14:24:48.596Z,6256